首页
METAR-TAF:

METAR-TAF

机场 :

Gjoa Haven, 努那武特, 加拿大

纬度: 68-38N, 经度: 095-51W, 海拔: 46米

当前天气观测

该预报发布于36分钟前的07:17 UTC
风速5节,风向南转西南
温度 8°C
湿度 100%
气压 1020 hPa
能見度: 9.7公里
少量云层高于100英尺
阴天层高于11000英尺
轻雾

METAR: CYHK 220717Z AUTO 21005KT 6SM BR FEW001 OVC110 08/08 A3011 RMK SLP202

时间: 01:53 (07:53 UTC)

预报

该预报发布于2小时和13分钟前的05:40 UTC
预报有效从22日的 06点(UTC)到 22日的 18点(UTC)
风速3节,风向多变
能見度: 10公里
少量云层高于6000英尺
散云层高于13000英尺
多云层高于21000英尺
几率 30%
从 22日的 08点(UTC)到 22日的 12点(UTC)
能見度: 1.2公里
轻雾
从 22日的 1200点(UTC)
风速12节,风向南转西南
能見度: 10公里
少量云层高于9000英尺
多云层高于20000英尺

TAF: CYHK 220540Z 2206/2218 VRB03KT P6SM FEW060 SCT130 BKN210 PROB30 2208/2212 3/4SM BR FM221200 20012KT P6SM FEW090 BKN200 RMK FCST BASED ON AUTO OBS. NXT FCST BY 221200Z

超过4000个机场的气象观测和天气预报(METAR&TAF报告)。

可查询的气象台以黄色和红色小点在地图上表示。

将鼠标移到小点上方,可查看气象台名称。

然后点击查看天气观测和预报。

如需切换地图:点击带黑十字的绿色按钮放大地图;点击带横线的绿色按钮缩小地图;或者点击绿色箭头查看邻近地区的地图。


METAR-TAF: